Time;durP1;ratioP1;P1;durP2;ratioP2;P2;SDS_P1;SDS_P2;PMS_P1;PMS_P2;Temp;Humidity;BMP_temperature;BMP_pressure;BME280_temperature;BME280_humidity;BME280_pressure;Samples;Min_cycle;Max_cycle;Signal;HPM_P1;HPM_P2
2022/07/29 00:01:53;;;;;;;6.10;3.20;;;;;;;;;;110294;1257;35067;-36
2022/07/29 00:04:25;;;;;;;5.90;3.30;;;;;;;;;;110332;1250;34710;-37
2022/07/29 00:06:57;;;;;;;4.90;3.00;;;;;;;;;;110303;1256;34745;-36
2022/07/29 00:09:29;;;;;;;5.30;3.30;;;;;;;;;;110305;1257;33953;-36
2022/07/29 00:12:03;;;;;;;6.30;3.50;;;;;;;;;;110304;1256;35008;-36
2022/07/29 00:14:35;;;;;;;5.20;2.90;;;;;;;;;;110302;1256;33070;-37
2022/07/29 00:17:10;;;;;;;5.20;3.40;;;;;;;;;;110287;1251;34563;-39
2022/07/29 00:19:44;;;;;;;6.10;3.80;;;;;;;;;;110269;1256;34876;-35
2022/07/29 00:22:16;;;;;;;6.90;3.50;;;;;;;;;;110284;1257;34722;-36
2022/07/29 00:24:49;;;;;;;5.80;3.60;;;;;;;;;;110311;1257;34760;-36
2022/07/29 00:27:22;;;;;;;5.60;3.70;;;;;;;;;;110306;1250;33960;-36
2022/07/29 00:29:54;;;;;;;7.00;3.60;;;;;;;;;;109994;1256;428390;-36
2022/07/29 00:32:26;;;;;;;6.40;3.30;;;;;;;;;;110337;1256;33192;-39
2022/07/29 00:37:48;;;;;;;6.40;4.30;;;;;;;;;;110332;1257;34031;-36
2022/07/29 00:40:20;;;;;;;6.40;3.30;;;;;;;;;;110295;1257;34885;-36
2022/07/29 00:42:56;;;;;;;6.00;3.60;;;;;;;;;;110315;1257;34553;-35
2022/07/29 00:45:29;;;;;;;6.30;4.10;;;;;;;;;;110273;1256;34812;-35
2022/07/29 00:48:03;;;;;;;6.10;3.40;;;;;;;;;;110300;1256;34597;-36
2022/07/29 00:50:36;;;;;;;6.80;3.60;;;;;;;;;;110310;1250;34855;-34
2022/07/29 00:53:09;;;;;;;7.00;3.90;;;;;;;;;;110321;1256;34746;-36
2022/07/29 00:55:44;;;;;;;6.70;3.70;;;;;;;;;;110314;1249;34706;-36
2022/07/29 00:58:22;;;;;;;6.20;3.60;;;;;;;;;;110309;1256;34927;-37
2022/07/29 01:00:55;;;;;;;6.20;4.10;;;;;;;;;;110319;1256;33499;-37
2022/07/29 01:03:27;;;;;;;5.80;3.30;;;;;;;;;;110313;1251;34681;-39
2022/07/29 01:05:59;;;;;;;7.20;3.70;;;;;;;;;;110312;1250;34557;-37
2022/07/29 01:08:35;;;;;;;7.10;3.90;;;;;;;;;;110334;1250;35065;-36
2022/07/29 01:11:07;;;;;;;6.10;3.60;;;;;;;;;;110327;1251;34536;-36
2022/07/29 01:13:42;;;;;;;6.00;4.10;;;;;;;;;;110287;1256;34092;-36
2022/07/29 01:16:21;;;;;;;5.60;3.70;;;;;;;;;;110239;1257;34761;-36
2022/07/29 01:18:59;;;;;;;6.10;3.40;;;;;;;;;;110211;1256;34891;-36
2022/07/29 01:21:54;;;;;;;6.30;3.40;;;;;;;;;;110233;1257;33980;-36
2022/07/29 01:24:55;;;;;;;6.90;3.90;;;;;;;;;;110199;1257;34053;-36
2022/07/29 01:27:48;;;;;;;5.70;3.70;;;;;;;;;;110223;1257;34797;-35
2022/07/29 01:30:21;;;;;;;5.40;3.60;;;;;;;;;;110215;1257;33930;-38
2022/07/29 01:33:00;;;;;;;5.40;3.60;;;;;;;;;;110239;1257;34878;-36
2022/07/29 01:35:39;;;;;;;5.80;3.30;;;;;;;;;;110212;1257;34755;-36
2022/07/29 01:38:17;;;;;;;5.60;3.30;;;;;;;;;;110254;1257;34676;-36
2022/07/29 01:40:54;;;;;;;5.60;3.70;;;;;;;;;;110185;1257;35129;-36
2022/07/29 01:43:37;;;;;;;6.20;3.50;;;;;;;;;;110218;1257;34890;-36
2022/07/29 01:46:10;;;;;;;;;;;;;;;;;;110251;1249;34062;-35
2022/07/29 01:48:48;;;;;;;6.30;3.60;;;;;;;;;;110203;1251;33320;-35
2022/07/29 01:51:27;;;;;;;6.10;3.70;;;;;;;;;;110218;1257;35248;-36
2022/07/29 01:54:08;;;;;;;6.40;3.50;;;;;;;;;;110223;1257;34603;-35
2022/07/29 01:56:41;;;;;;;5.20;3.20;;;;;;;;;;110216;1250;34745;-36
2022/07/29 01:59:20;;;;;;;5.40;3.60;;;;;;;;;;110222;1257;34131;-36
2022/07/29 02:01:56;;;;;;;6.00;3.30;;;;;;;;;;110234;1251;34591;-36
2022/07/29 02:04:30;;;;;;;4.90;3.20;;;;;;;;;;110243;1257;33127;-36
2022/07/29 02:07:08;;;;;;;5.90;3.20;;;;;;;;;;110241;1256;33531;-34
2022/07/29 02:09:42;;;;;;;5.40;3.30;;;;;;;;;;110202;1250;33541;-36
2022/07/29 02:12:15;;;;;;;5.50;3.10;;;;;;;;;;110204;1251;34841;-36
2022/07/29 02:14:51;;;;;;;5.50;3.30;;;;;;;;;;110264;1256;34804;-36
2022/07/29 02:17:28;;;;;;;5.80;3.40;;;;;;;;;;110341;1256;33165;-36
2022/07/29 02:20:04;;;;;;;5.00;2.90;;;;;;;;;;110323;1256;35139;-37
2022/07/29 02:22:40;;;;;;;5.60;3.00;;;;;;;;;;110313;1250;34731;-37
2022/07/29 02:25:14;;;;;;;4.90;2.90;;;;;;;;;;110348;1256;34110;-34
2022/07/29 02:27:46;;;;;;;5.50;3.10;;;;;;;;;;110312;1256;34550;-37
2022/07/29 02:30:19;;;;;;;5.40;3.30;;;;;;;;;;110334;1256;33051;-36
2022/07/29 02:32:53;;;;;;;4.90;2.80;;;;;;;;;;110323;1256;33113;-36
2022/07/29 02:35:28;;;;;;;4.90;2.90;;;;;;;;;;110340;1250;34050;-34
2022/07/29 02:40:59;;;;;;;6.00;3.20;;;;;;;;;;110150;1256;34904;-34
2022/07/29 02:43:32;;;;;;;4.90;2.50;;;;;;;;;;110318;1256;34764;-34
2022/07/29 02:46:09;;;;;;;5.20;3.10;;;;;;;;;;110312;1256;33242;-36
2022/07/29 02:48:44;;;;;;;4.70;2.90;;;;;;;;;;110357;1256;33121;-36
2022/07/29 02:51:32;;;;;;;5.60;2.60;;;;;;;;;;110350;1249;34839;-34
2022/07/29 02:54:10;;;;;;;5.10;2.80;;;;;;;;;;110303;1256;34637;-36
2022/07/29 02:56:43;;;;;;;5.50;2.80;;;;;;;;;;110308;1256;35123;-36
2022/07/29 02:59:21;;;;;;;5.10;2.60;;;;;;;;;;110320;1249;33682;-36
2022/07/29 03:01:53;;;;;;;4.60;2.80;;;;;;;;;;110313;1250;34839;-36
2022/07/29 03:04:29;;;;;;;4.50;2.80;;;;;;;;;;110301;1250;34889;-35
2022/07/29 03:07:03;;;;;;;5.40;2.90;;;;;;;;;;110333;1249;35041;-35
2022/07/29 03:09:35;;;;;;;4.60;2.40;;;;;;;;;;110309;1256;33178;-36
2022/07/29 03:12:10;;;;;;;6.40;2.70;;;;;;;;;;110309;1256;34793;-36
2022/07/29 03:14:43;;;;;;;5.20;2.70;;;;;;;;;;110322;1250;33072;-36
2022/07/29 03:17:16;;;;;;;6.00;2.30;;;;;;;;;;110343;1256;33920;-34
2022/07/29 03:19:48;;;;;;;5.10;2.60;;;;;;;;;;110317;1250;34717;-36
2022/07/29 03:22:21;;;;;;;4.50;2.40;;;;;;;;;;110320;1249;33220;-36
2022/07/29 03:24:53;;;;;;;5.20;2.40;;;;;;;;;;110326;1256;34727;-35
2022/07/29 03:27:25;;;;;;;5.10;2.80;;;;;;;;;;110331;1256;34837;-37
2022/07/29 03:29:57;;;;;;;4.50;2.50;;;;;;;;;;110333;1256;33435;-36
2022/07/29 03:32:30;;;;;;;4.40;2.50;;;;;;;;;;110289;1249;33098;-39
2022/07/29 03:35:02;;;;;;;4.90;2.30;;;;;;;;;;110309;1256;34902;-38
2022/07/29 03:37:37;;;;;;;5.00;2.60;;;;;;;;;;110309;1256;35087;-38
2022/07/29 03:40:13;;;;;;;5.10;2.50;;;;;;;;;;110253;1256;34783;-36
2022/07/29 03:42:47;;;;;;;4.70;2.20;;;;;;;;;;110319;1249;34818;-36
2022/07/29 03:45:20;;;;;;;5.40;2.70;;;;;;;;;;110309;1250;35093;-35
2022/07/29 03:47:58;;;;;;;4.20;2.30;;;;;;;;;;110294;1256;34665;-34
2022/07/29 03:50:32;;;;;;;4.80;2.60;;;;;;;;;;110305;1251;33180;-36
2022/07/29 03:53:07;;;;;;;5.80;2.60;;;;;;;;;;110323;1256;33112;-36
2022/07/29 03:55:44;;;;;;;4.40;2.40;;;;;;;;;;110306;1250;35024;-34
2022/07/29 03:58:17;;;;;;;4.10;2.40;;;;;;;;;;110337;1249;34774;-34
2022/07/29 04:00:48;;;;;;;;;;;;;;;;;;110301;1256;33754;-36
2022/07/29 04:03:21;;;;;;;4.40;2.30;;;;;;;;;;110311;1256;32722;-36
2022/07/29 04:06:05;;;;;;;4.70;2.30;;;;;;;;;;110312;1256;34880;-34
2022/07/29 04:08:38;;;;;;;4.50;2.50;;;;;;;;;;110315;1256;35221;-34
2022/07/29 04:11:14;;;;;;;4.70;2.40;;;;;;;;;;110309;1249;33282;-36
2022/07/29 04:13:47;;;;;;;4.10;2.10;;;;;;;;;;110288;1256;33173;-34
2022/07/29 04:16:22;;;;;;;5.00;2.10;;;;;;;;;;110300;1256;32334;-36
2022/07/29 04:18:55;;;;;;;4.40;2.40;;;;;;;;;;110300;1256;34700;-36
2022/07/29 04:21:31;;;;;;;4.50;2.10;;;;;;;;;;110298;1249;34629;-34
2022/07/29 04:24:04;;;;;;;4.70;2.20;;;;;;;;;;110323;1250;33052;-36
2022/07/29 04:26:36;;;;;;;3.50;1.90;;;;;;;;;;110298;1250;33621;-34
2022/07/29 04:29:09;;;;;;;4.30;2.00;;;;;;;;;;110305;1256;34431;-36
2022/07/29 04:31:41;;;;;;;4.10;2.00;;;;;;;;;;110307;1256;34012;-36
2022/07/29 04:34:14;;;;;;;4.50;2.20;;;;;;;;;;110328;1250;34022;-37
2022/07/29 04:36:46;;;;;;;4.90;2.50;;;;;;;;;;110313;1249;34807;-34
2022/07/29 04:39:18;;;;;;;4.20;2.20;;;;;;;;;;110295;1249;34684;-36
2022/07/29 04:41:51;;;;;;;3.80;2.00;;;;;;;;;;110285;1250;34776;-36
2022/07/29 04:44:23;;;;;;;4.70;2.10;;;;;;;;;;110309;1256;35121;-36
2022/07/29 04:46:55;;;;;;;4.00;2.20;;;;;;;;;;110273;1250;35213;-36
2022/07/29 04:49:30;;;;;;;4.20;2.00;;;;;;;;;;110286;1256;33884;-36
2022/07/29 04:52:02;;;;;;;4.20;2.00;;;;;;;;;;110256;1256;35051;-36
2022/07/29 04:54:34;;;;;;;3.50;1.70;;;;;;;;;;110277;1256;33108;-34
2022/07/29 04:57:07;;;;;;;3.70;2.00;;;;;;;;;;110310;1250;34692;-34
2022/07/29 04:59:40;;;;;;;4.10;1.90;;;;;;;;;;110279;1250;33858;-36
2022/07/29 05:02:16;;;;;;;5.10;2.10;;;;;;;;;;110317;1256;34549;-34
2022/07/29 05:04:51;;;;;;;4.70;1.90;;;;;;;;;;110289;1256;32578;-37
2022/07/29 05:07:23;;;;;;;4.30;1.80;;;;;;;;;;110282;1250;34811;-36
2022/07/29 05:09:56;;;;;;;5.50;1.80;;;;;;;;;;110268;1250;34718;-36
2022/07/29 05:12:27;;;;;;;;;;;;;;;;;;110270;1250;34565;-36
2022/07/29 05:15:00;;;;;;;4.40;1.70;;;;;;;;;;110275;1249;35086;-36
2022/07/29 05:17:32;;;;;;;3.20;1.80;;;;;;;;;;110322;1256;33409;-37
2022/07/29 05:20:07;;;;;;;3.80;2.10;;;;;;;;;;110302;1249;34676;-37
2022/07/29 05:22:40;;;;;;;5.10;2.00;;;;;;;;;;110318;1256;34603;-36
2022/07/29 05:25:13;;;;;;;4.20;2.00;;;;;;;;;;110277;1250;34700;-37
2022/07/29 05:27:45;;;;;;;3.80;1.50;;;;;;;;;;110305;1256;33065;-37
2022/07/29 05:30:18;;;;;;;4.40;2.10;;;;;;;;;;110283;1256;34799;-37
2022/07/29 05:32:49;;;;;;;;;;;;;;;;;;110344;1256;34492;-37
2022/07/29 05:35:22;;;;;;;4.60;1.60;;;;;;;;;;110278;1250;34962;-37
2022/07/29 05:37:54;;;;;;;3.70;1.60;;;;;;;;;;110268;1250;33032;-36
2022/07/29 05:40:27;;;;;;;4.00;1.50;;;;;;;;;;110273;1250;34588;-34
2022/07/29 05:43:00;;;;;;;3.30;1.50;;;;;;;;;;110296;1256;35030;-36
2022/07/29 05:45:33;;;;;;;4.20;1.70;;;;;;;;;;110271;1256;33115;-36
2022/07/29 05:48:08;;;;;;;4.00;1.70;;;;;;;;;;110271;1250;33776;-36
2022/07/29 05:50:41;;;;;;;3.90;1.50;;;;;;;;;;110286;1250;34690;-34
2022/07/29 05:53:13;;;;;;;5.50;1.90;;;;;;;;;;110301;1250;34828;-35
2022/07/29 05:55:45;;;;;;;3.30;1.60;;;;;;;;;;110269;1256;33736;-34
2022/07/29 05:58:17;;;;;;;4.20;1.70;;;;;;;;;;110200;1256;34896;-37
2022/07/29 06:00:50;;;;;;;3.80;1.60;;;;;;;;;;110306;1250;33886;-40
2022/07/29 06:03:23;;;;;;;3.90;1.30;;;;;;;;;;110316;1250;35005;-35
2022/07/29 06:05:55;;;;;;;3.60;1.50;;;;;;;;;;110306;1250;34708;-36
2022/07/29 06:08:27;;;;;;;5.30;1.40;;;;;;;;;;110276;1256;33668;-37
2022/07/29 06:11:02;;;;;;;4.00;1.70;;;;;;;;;;110285;1256;34413;-36
2022/07/29 06:13:35;;;;;;;2.80;1.30;;;;;;;;;;110302;1256;34653;-38
2022/07/29 06:16:10;;;;;;;3.60;1.10;;;;;;;;;;110297;1249;34733;-37
2022/07/29 06:18:45;;;;;;;3.10;1.20;;;;;;;;;;110279;1250;34853;-36
2022/07/29 06:21:18;;;;;;;2.90;1.20;;;;;;;;;;110295;1256;34490;-36
2022/07/29 06:23:50;;;;;;;3.50;1.40;;;;;;;;;;110259;1256;34377;-39
2022/07/29 06:26:23;;;;;;;2.40;1.10;;;;;;;;;;110299;1249;33128;-35
2022/07/29 06:28:55;;;;;;;2.70;1.20;;;;;;;;;;110302;1250;35159;-37
2022/07/29 06:31:27;;;;;;;3.80;1.30;;;;;;;;;;110286;1254;33456;-36
2022/07/29 06:34:02;;;;;;;3.70;1.20;;;;;;;;;;110304;1256;33029;-34
2022/07/29 06:36:41;;;;;;;4.00;1.20;;;;;;;;;;110302;1249;33191;-36
2022/07/29 06:39:19;;;;;;;4.40;1.30;;;;;;;;;;110283;1256;33566;-36
2022/07/29 06:41:54;;;;;;;3.40;1.30;;;;;;;;;;110270;1256;33935;-35
2022/07/29 06:44:26;;;;;;;5.70;1.30;;;;;;;;;;110305;1250;35110;-36
2022/07/29 06:46:58;;;;;;;3.80;1.20;;;;;;;;;;110305;1256;35033;-35
2022/07/29 06:49:31;;;;;;;3.40;1.20;;;;;;;;;;110283;1256;34740;-34
2022/07/29 06:52:04;;;;;;;3.20;1.10;;;;;;;;;;110290;1256;35163;-36
2022/07/29 06:54:35;;;;;;;;;;;;;;;;;;110286;1250;34479;-34
2022/07/29 06:57:11;;;;;;;3.00;1.00;;;;;;;;;;110296;1251;32763;-35
2022/07/29 06:59:44;;;;;;;2.70;1.20;;;;;;;;;;110292;1256;33061;-36
2022/07/29 07:02:16;;;;;;;1.90;0.90;;;;;;;;;;110283;1256;34604;-34
2022/07/29 07:04:50;;;;;;;4.00;1.30;;;;;;;;;;110316;1256;34671;-36
2022/07/29 07:07:22;;;;;;;2.40;0.90;;;;;;;;;;110326;1250;34974;-37
2022/07/29 07:09:55;;;;;;;2.90;1.10;;;;;;;;;;110288;1251;33226;-37
2022/07/29 07:12:27;;;;;;;2.40;1.10;;;;;;;;;;110266;1256;34901;-38
2022/07/29 07:15:03;;;;;;;3.50;1.10;;;;;;;;;;110269;1256;34777;-36
2022/07/29 07:17:38;;;;;;;2.50;1.00;;;;;;;;;;110312;1249;35043;-36
2022/07/29 07:20:13;;;;;;;2.90;1.40;;;;;;;;;;110284;1250;34825;-38
2022/07/29 07:22:46;;;;;;;3.00;1.20;;;;;;;;;;110305;1256;34352;-36
2022/07/29 07:25:18;;;;;;;2.20;0.90;;;;;;;;;;110296;1256;35165;-36
2022/07/29 07:27:53;;;;;;;2.90;1.00;;;;;;;;;;110275;1256;33070;-34
2022/07/29 07:30:25;;;;;;;3.40;1.00;;;;;;;;;;110305;1256;34770;-34
2022/07/29 07:33:02;;;;;;;3.20;1.10;;;;;;;;;;110279;1251;34934;-34
2022/07/29 07:35:34;;;;;;;2.30;0.90;;;;;;;;;;110311;1256;34461;-34
2022/07/29 07:38:07;;;;;;;1.90;0.90;;;;;;;;;;110291;1256;34914;-36
2022/07/29 07:40:40;;;;;;;3.20;1.20;;;;;;;;;;110303;1256;33264;-36
2022/07/29 07:43:12;;;;;;;3.50;1.00;;;;;;;;;;110306;1256;34744;-34
2022/07/29 07:45:44;;;;;;;2.90;1.20;;;;;;;;;;110308;1250;34559;-35
2022/07/29 07:48:17;;;;;;;2.50;1.10;;;;;;;;;;110294;1250;33105;-36
2022/07/29 07:50:50;;;;;;;3.20;1.10;;;;;;;;;;110296;1256;33918;-34
2022/07/29 07:53:22;;;;;;;2.00;0.90;;;;;;;;;;110306;1256;34090;-37
2022/07/29 07:55:54;;;;;;;2.30;1.00;;;;;;;;;;110307;1256;34548;-36
2022/07/29 07:58:27;;;;;;;2.90;1.00;;;;;;;;;;110280;1256;33211;-37
2022/07/29 08:01:01;;;;;;;3.00;1.20;;;;;;;;;;110380;1248;34835;-38
2022/07/29 08:03:35;;;;;;;2.90;1.10;;;;;;;;;;110275;1256;34758;-36
2022/07/29 08:06:07;;;;;;;1.90;0.90;;;;;;;;;;110288;1256;34821;-35
2022/07/29 08:08:40;;;;;;;2.50;1.10;;;;;;;;;;110307;1249;33206;-36
2022/07/29 08:11:13;;;;;;;3.40;1.10;;;;;;;;;;110285;1250;34757;-36
2022/07/29 08:13:46;;;;;;;5.30;3.60;;;;;;;;;;110245;1249;35218;-38
2022/07/29 08:16:18;;;;;;;6.10;2.70;;;;;;;;;;110203;1258;34929;-38
2022/07/29 08:18:51;;;;;;;4.30;2.20;;;;;;;;;;110180;1259;34937;-38
2022/07/29 08:21:24;;;;;;;4.40;2.10;;;;;;;;;;110228;1258;33149;-40
2022/07/29 08:24:42;;;;;;;4.10;2.10;;;;;;;;;;110198;1250;35101;-41
2022/07/29 08:26:50;;;;;;;4.20;2.10;;;;;;;;;;110205;1250;34012;-40
2022/07/29 08:29:22;;;;;;;4.40;2.10;;;;;;;;;;109903;1258;420628;-39
2022/07/29 08:31:54;;;;;;;5.00;2.10;;;;;;;;;;110198;1250;35770;-42
2022/07/29 08:34:26;;;;;;;5.70;2.40;;;;;;;;;;110207;1250;34521;-39
2022/07/29 08:36:59;;;;;;;3.70;2.20;;;;;;;;;;110215;1258;34663;-38
2022/07/29 08:39:31;;;;;;;6.10;2.40;;;;;;;;;;110240;1258;35156;-42
2022/07/29 08:42:03;;;;;;;4.70;2.30;;;;;;;;;;110197;1258;35284;-42
2022/07/29 08:44:37;;;;;;;6.80;2.30;;;;;;;;;;110240;1250;33264;-43
2022/07/29 08:47:09;;;;;;;4.90;1.90;;;;;;;;;;110199;1259;33126;-41
2022/07/29 08:49:41;;;;;;;6.20;2.40;;;;;;;;;;110230;1250;33388;-40
2022/07/29 08:52:16;;;;;;;5.30;2.00;;;;;;;;;;110214;1250;34934;-40
2022/07/29 08:54:48;;;;;;;5.10;1.80;;;;;;;;;;110238;1258;33746;-40
2022/07/29 08:57:21;;;;;;;5.10;2.30;;;;;;;;;;110199;1258;34620;-41
2022/07/29 08:59:55;;;;;;;5.00;2.00;;;;;;;;;;110239;1250;35078;-44
2022/07/29 09:02:31;;;;;;;4.20;1.70;;;;;;;;;;110239;1250;34007;-44
2022/07/29 09:05:04;;;;;;;4.20;1.70;;;;;;;;;;110246;1250;34831;-46
2022/07/29 09:07:36;;;;;;;4.30;1.60;;;;;;;;;;110262;1258;34014;-43
2022/07/29 09:10:11;;;;;;;3.80;1.50;;;;;;;;;;110216;1259;34879;-48
2022/07/29 09:12:44;;;;;;;5.70;1.70;;;;;;;;;;110285;1250;34422;-45
2022/07/29 09:15:17;;;;;;;4.10;1.30;;;;;;;;;;110205;1250;34844;-42
2022/07/29 09:17:51;;;;;;;3.80;1.40;;;;;;;;;;110178;1251;32849;-43
2022/07/29 09:20:25;;;;;;;3.30;1.40;;;;;;;;;;110098;1258;33182;-44
2022/07/29 09:22:57;;;;;;;4.20;1.50;;;;;;;;;;110219;1258;34911;-41
2022/07/29 09:25:40;;;;;;;7.40;1.50;;;;;;;;;;110210;1259;34563;-41
2022/07/29 09:28:17;;;;;;;4.90;1.50;;;;;;;;;;110186;1258;35035;-39
2022/07/29 09:30:57;;;;;;;4.20;1.70;;;;;;;;;;110149;1253;34521;-37
2022/07/29 09:33:40;;;;;;;4.90;1.90;;;;;;;;;;110161;1259;33124;-40
2022/07/29 09:36:12;;;;;;;4.60;1.40;;;;;;;;;;110176;1258;34921;-39
2022/07/29 09:38:45;;;;;;;4.30;1.50;;;;;;;;;;110079;1258;34059;-41
2022/07/29 09:41:17;;;;;;;4.50;1.30;;;;;;;;;;110099;1259;33143;-39
2022/07/29 09:43:59;;;;;;;5.10;1.40;;;;;;;;;;110093;1259;34822;-41
2022/07/29 09:46:31;;;;;;;4.10;1.70;;;;;;;;;;110173;1258;34871;-42
2022/07/29 09:49:15;;;;;;;4.10;1.60;;;;;;;;;;110182;1256;34772;-39
2022/07/29 09:51:47;;;;;;;3.50;1.30;;;;;;;;;;110188;1258;34710;-39
2022/07/29 09:54:28;;;;;;;3.60;1.40;;;;;;;;;;110183;1253;34961;-39
2022/07/29 09:57:01;;;;;;;4.20;1.50;;;;;;;;;;110208;1258;33134;-40
2022/07/29 09:59:33;;;;;;;4.50;1.40;;;;;;;;;;110199;1258;35229;-39
2022/07/29 10:02:13;;;;;;;3.30;1.30;;;;;;;;;;110184;1259;34582;-41
2022/07/29 10:04:47;;;;;;;3.90;1.50;;;;;;;;;;110226;1250;34456;-40
2022/07/29 10:07:19;;;;;;;4.00;1.40;;;;;;;;;;110228;1250;35049;-39
2022/07/29 10:09:59;;;;;;;2.80;1.40;;;;;;;;;;110200;1250;34752;-39
2022/07/29 10:12:31;;;;;;;4.50;1.40;;;;;;;;;;110214;1258;35505;-38
2022/07/29 10:15:06;;;;;;;3.00;1.20;;;;;;;;;;110178;1258;34500;-42
2022/07/29 10:17:38;;;;;;;3.80;1.80;;;;;;;;;;110213;1254;34591;-43
2022/07/29 10:20:12;;;;;;;4.40;1.60;;;;;;;;;;110186;1259;33042;-44
2022/07/29 10:22:46;;;;;;;5.30;1.30;;;;;;;;;;110224;1258;34636;-43
2022/07/29 10:25:20;;;;;;;4.70;1.50;;;;;;;;;;110208;1258;34971;-42
2022/07/29 10:27:54;;;;;;;3.50;1.30;;;;;;;;;;110178;1258;33911;-40
2022/07/29 10:30:27;;;;;;;3.80;1.40;;;;;;;;;;110190;1258;35368;-40
2022/07/29 10:33:12;;;;;;;5.70;1.40;;;;;;;;;;110221;1250;34170;-42
2022/07/29 10:36:08;;;;;;;4.20;1.40;;;;;;;;;;110237;1250;33083;-42
2022/07/29 10:38:52;;;;;;;3.20;1.30;;;;;;;;;;110218;1259;34802;-45
2022/07/29 10:41:48;;;;;;;4.20;1.40;;;;;;;;;;110183;1258;33933;-43
2022/07/29 10:44:23;;;;;;;5.20;1.50;;;;;;;;;;110201;1258;34707;-43
2022/07/29 10:46:55;;;;;;;7.90;1.70;;;;;;;;;;110225;1259;34435;-38
2022/07/29 10:49:29;;;;;;;7.20;2.80;;;;;;;;;;110207;1258;34752;-47
2022/07/29 10:52:09;;;;;;;7.40;3.60;;;;;;;;;;110211;1258;34943;-45
2022/07/29 10:54:44;;;;;;;6.90;3.50;;;;;;;;;;110243;1258;34937;-44
2022/07/29 10:57:26;;;;;;;10.50;4.60;;;;;;;;;;110223;1258;34998;-44
2022/07/29 11:00:33;;;;;;;9.60;5.40;;;;;;;;;;110237;1258;35133;-39
2022/07/29 11:03:05;;;;;;;11.00;5.70;;;;;;;;;;110216;1250;33146;-41
2022/07/29 11:05:58;;;;;;;9.50;5.80;;;;;;;;;;110209;1258;33559;-40
2022/07/29 11:08:30;;;;;;;10.10;6.10;;;;;;;;;;110216;1258;34525;-38
2022/07/29 11:11:41;;;;;;;10.60;6.00;;;;;;;;;;110136;1250;31891;-38
2022/07/29 11:14:13;;;;;;;8.80;4.70;;;;;;;;;;110223;1250;34704;-38
2022/07/29 11:17:06;;;;;;;9.70;4.90;;;;;;;;;;110151;1259;34066;-38
2022/07/29 11:19:42;;;;;;;8.70;4.70;;;;;;;;;;110213;1250;33999;-40
2022/07/29 11:22:34;;;;;;;7.90;4.20;;;;;;;;;;110175;1259;35331;-39
2022/07/29 11:25:22;;;;;;;7.70;3.80;;;;;;;;;;110235;1258;34595;-39
2022/07/29 11:27:55;;;;;;;7.50;3.90;;;;;;;;;;110176;1250;34601;-39
2022/07/29 11:30:51;;;;;;;7.80;3.30;;;;;;;;;;110175;1259;35020;-40
2022/07/29 11:33:34;;;;;;;6.30;3.10;;;;;;;;;;110205;1258;34799;-38
2022/07/29 11:36:14;;;;;;;6.80;2.70;;;;;;;;;;110222;1250;33712;-39
2022/07/29 11:38:46;;;;;;;5.70;2.90;;;;;;;;;;110121;1259;32463;-40
2022/07/29 11:41:29;;;;;;;5.00;2.30;;;;;;;;;;110070;1252;35335;-39
2022/07/29 11:44:02;;;;;;;5.10;2.10;;;;;;;;;;110117;1252;34473;-41
2022/07/29 11:46:51;;;;;;;4.30;2.00;;;;;;;;;;110184;1257;33670;-39
2022/07/29 11:49:28;;;;;;;5.40;2.20;;;;;;;;;;110221;1259;34513;-40
2022/07/29 11:52:02;;;;;;;5.00;2.00;;;;;;;;;;110234;1250;34058;-39
2022/07/29 11:54:36;;;;;;;6.40;2.00;;;;;;;;;;110211;1250;33595;-40
2022/07/29 11:57:10;;;;;;;3.80;1.40;;;;;;;;;;110211;1250;34905;-45
2022/07/29 11:59:45;;;;;;;3.80;1.60;;;;;;;;;;110218;1258;34956;-41
2022/07/29 12:02:18;;;;;;;4.10;1.60;;;;;;;;;;110178;1258;34700;-42
2022/07/29 12:04:54;;;;;;;4.70;1.30;;;;;;;;;;110212;1253;32835;-41
2022/07/29 12:07:32;;;;;;;3.00;1.40;;;;;;;;;;110233;1259;33825;-40
2022/07/29 12:10:05;;;;;;;3.10;1.40;;;;;;;;;;110254;1250;34581;-41
2022/07/29 12:12:36;;;;;;;;;;;;;;;;;;110256;1258;34903;-41
2022/07/29 12:15:23;;;;;;;4.20;1.20;;;;;;;;;;110207;1259;35062;-40
2022/07/29 12:17:55;;;;;;;3.40;1.20;;;;;;;;;;110237;1250;33202;-46
2022/07/29 12:20:30;;;;;;;4.30;1.20;;;;;;;;;;110214;1250;33420;-41
2022/07/29 12:23:08;;;;;;;3.20;1.60;;;;;;;;;;110242;1250;34452;-42
2022/07/29 12:25:44;;;;;;;3.00;1.10;;;;;;;;;;110197;1250;35286;-39
2022/07/29 12:28:18;;;;;;;2.80;1.30;;;;;;;;;;110227;1259;34698;-42
2022/07/29 12:30:52;;;;;;;3.00;1.10;;;;;;;;;;110219;1258;33099;-41
2022/07/29 12:33:27;;;;;;;3.30;1.30;;;;;;;;;;110137;1253;34704;-41
2022/07/29 12:36:01;;;;;;;3.40;1.20;;;;;;;;;;110193;1250;34848;-47
2022/07/29 12:38:34;;;;;;;3.30;1.30;;;;;;;;;;110097;1259;34980;-41
2022/07/29 12:41:06;;;;;;;3.40;1.00;;;;;;;;;;110133;1259;34949;-41
2022/07/29 12:43:38;;;;;;;2.40;1.00;;;;;;;;;;110152;1251;34617;-41
2022/07/29 12:46:17;;;;;;;2.70;0.90;;;;;;;;;;110127;1254;34876;-40
2022/07/29 12:48:56;;;;;;;2.70;1.10;;;;;;;;;;110151;1251;33312;-42
2022/07/29 12:51:36;;;;;;;2.90;1.10;;;;;;;;;;110023;1253;33953;-40
2022/07/29 12:54:13;;;;;;;3.70;1.20;;;;;;;;;;110196;1253;34607;-41
2022/07/29 12:56:46;;;;;;;3.80;1.30;;;;;;;;;;110102;1253;33103;-40
2022/07/29 12:59:21;;;;;;;2.90;1.00;;;;;;;;;;110089;1259;34828;-43
2022/07/29 13:01:54;;;;;;;3.70;1.20;;;;;;;;;;110150;1259;34102;-44
2022/07/29 13:04:31;;;;;;;3.20;1.20;;;;;;;;;;110118;1259;34517;-42
2022/07/29 13:07:06;;;;;;;5.50;1.90;;;;;;;;;;110100;1259;34663;-40
2022/07/29 13:09:45;;;;;;;4.20;1.30;;;;;;;;;;110107;1259;33159;-42
2022/07/29 13:12:17;;;;;;;3.90;1.50;;;;;;;;;;110097;1259;34796;-44
2022/07/29 13:14:53;;;;;;;4.20;1.40;;;;;;;;;;109990;1259;33654;-39
2022/07/29 13:17:27;;;;;;;3.80;1.40;;;;;;;;;;109960;1259;34543;-41
2022/07/29 13:20:12;;;;;;;5.30;1.60;;;;;;;;;;109964;1259;35084;-40
2022/07/29 13:22:48;;;;;;;6.50;1.80;;;;;;;;;;110054;1253;33866;-40
2022/07/29 13:25:29;;;;;;;4.20;1.50;;;;;;;;;;110076;1253;33983;-40
2022/07/29 13:28:06;;;;;;;4.40;1.30;;;;;;;;;;110074;1251;33918;-39
2022/07/29 13:30:38;;;;;;;4.10;1.40;;;;;;;;;;110012;1259;33129;-42
2022/07/29 13:33:13;;;;;;;4.60;1.40;;;;;;;;;;110040;1259;34590;-41
2022/07/29 13:35:45;;;;;;;3.70;1.20;;;;;;;;;;110103;1251;34850;-41
2022/07/29 13:38:17;;;;;;;3.60;1.60;;;;;;;;;;110077;1251;34688;-45
2022/07/29 13:40:49;;;;;;;3.30;1.40;;;;;;;;;;110206;1259;34644;-38
2022/07/29 13:43:21;;;;;;;3.80;1.20;;;;;;;;;;110198;1250;33842;-36
2022/07/29 13:45:53;;;;;;;3.30;1.10;;;;;;;;;;110242;1258;34612;-38
2022/07/29 13:48:25;;;;;;;4.00;1.40;;;;;;;;;;110254;1250;34753;-40
2022/07/29 13:50:57;;;;;;;4.60;1.50;;;;;;;;;;110240;1250;34518;-39
2022/07/29 13:53:29;;;;;;;4.30;1.40;;;;;;;;;;110240;1252;34769;-39
2022/07/29 13:56:01;;;;;;;3.70;1.20;;;;;;;;;;110200;1250;33965;-42
2022/07/29 13:58:33;;;;;;;3.80;1.20;;;;;;;;;;110238;1259;34618;-38
2022/07/29 14:01:05;;;;;;;4.10;1.10;;;;;;;;;;110233;1250;33777;-46
2022/07/29 14:03:40;;;;;;;4.30;1.30;;;;;;;;;;110237;1250;33148;-43
2022/07/29 14:06:13;;;;;;;4.50;1.20;;;;;;;;;;110229;1254;34987;-47
2022/07/29 14:08:45;;;;;;;4.10;1.30;;;;;;;;;;110239;1257;34517;-43
2022/07/29 14:11:17;;;;;;;3.20;1.20;;;;;;;;;;110240;1259;35055;-37
2022/07/29 14:13:48;;;;;;;3.60;1.20;;;;;;;;;;110225;1249;35750;-36
2022/07/29 14:16:20;;;;;;;4.30;1.30;;;;;;;;;;110234;1258;34754;-39
2022/07/29 14:18:52;;;;;;;3.90;1.20;;;;;;;;;;110243;1258;34563;-39
2022/07/29 14:21:24;;;;;;;3.90;1.30;;;;;;;;;;110201;1259;35091;-41
2022/07/29 14:23:56;;;;;;;2.30;1.00;;;;;;;;;;110188;1259;34825;-43
2022/07/29 14:26:28;;;;;;;4.90;1.50;;;;;;;;;;110223;1250;34922;-41
2022/07/29 14:29:00;;;;;;;3.80;1.30;;;;;;;;;;110177;1254;33445;-40
2022/07/29 14:31:32;;;;;;;3.50;1.10;;;;;;;;;;110208;1250;33547;-40
2022/07/29 14:34:04;;;;;;;3.30;1.30;;;;;;;;;;110219;1259;33045;-42
2022/07/29 14:36:36;;;;;;;2.50;1.10;;;;;;;;;;110122;1259;33141;-39
2022/07/29 14:39:08;;;;;;;3.40;0.90;;;;;;;;;;110169;1259;34962;-40
2022/07/29 14:41:40;;;;;;;3.20;1.10;;;;;;;;;;110198;1250;34840;-40
2022/07/29 14:44:12;;;;;;;3.30;1.10;;;;;;;;;;110172;1250;34634;-40
2022/07/29 14:46:44;;;;;;;3.30;1.20;;;;;;;;;;110214;1259;34751;-38
2022/07/29 14:49:16;;;;;;;3.30;1.20;;;;;;;;;;110226;1259;34786;-42
2022/07/29 14:51:48;;;;;;;3.10;1.00;;;;;;;;;;110186;1249;34639;-40
2022/07/29 14:54:20;;;;;;;3.40;1.10;;;;;;;;;;110233;1259;33553;-38
2022/07/29 14:56:56;;;;;;;4.40;1.30;;;;;;;;;;110240;1250;33253;-39
2022/07/29 14:59:28;;;;;;;5.00;1.20;;;;;;;;;;110219;1259;34594;-41
2022/07/29 15:02:00;;;;;;;4.00;1.30;;;;;;;;;;110149;1250;33897;-36
2022/07/29 15:04:32;;;;;;;3.60;1.10;;;;;;;;;;110173;1250;32408;-41
2022/07/29 15:07:04;;;;;;;3.60;1.20;;;;;;;;;;110211;1259;33969;-40
2022/07/29 15:09:37;;;;;;;3.10;1.30;;;;;;;;;;110193;1256;34890;-40
2022/07/29 15:12:11;;;;;;;3.90;1.70;;;;;;;;;;110227;1258;34780;-41
2022/07/29 15:14:42;;;;;;;3.80;1.40;;;;;;;;;;110202;1250;33608;-39
2022/07/29 15:17:14;;;;;;;4.30;1.50;;;;;;;;;;110177;1250;34561;-40
2022/07/29 15:19:46;;;;;;;3.10;1.30;;;;;;;;;;110216;1259;34872;-40
2022/07/29 15:22:19;;;;;;;3.60;1.40;;;;;;;;;;110224;1260;34777;-42